createdAt,value
2018-04-15T00:00:29.057Z,64.68
2018-04-15T00:01:31.520Z,66.25
2018-04-15T00:02:34.011Z,68.72
2018-04-15T00:03:38.088Z,66.75
2018-04-15T00:04:41.354Z,67.18
2018-04-15T00:05:43.834Z,69.65
2018-04-15T00:06:46.313Z,70.37
2018-04-15T00:07:49.624Z,68.07
2018-04-15T00:08:52.186Z,65.90
2018-04-15T00:09:54.662Z,69.28
2018-04-15T00:10:57.958Z,68.53
2018-04-15T00:12:00.460Z,64.20
2018-04-15T00:13:03.029Z,65.25
2018-04-15T00:14:06.374Z,62.38
2018-04-15T00:15:09.006Z,63.17
2018-04-15T00:16:11.506Z,65.93
2018-04-15T00:17:14.049Z,65.12
2018-04-15T00:18:16.554Z,65.95
2018-04-15T00:19:19.041Z,66.22
2018-04-15T00:20:22.308Z,67.82
2018-04-15T00:21:25.469Z,67.62
2018-04-15T00:22:28.061Z,68.62
2018-04-15T00:23:30.722Z,73.20
2018-04-15T00:24:33.366Z,71.85
2018-04-15T00:25:35.953Z,70.97
2018-04-15T00:26:38.424Z,68.10
2018-04-15T00:27:40.932Z,72.47
2018-04-15T00:28:43.430Z,70.85
2018-04-15T00:29:45.942Z,71.45
2018-04-15T00:30:49.310Z,68.55
2018-04-15T00:31:51.926Z,69.70
2018-04-15T00:32:54.407Z,68.55
2018-04-15T00:33:57.364Z,70.22
2018-04-15T00:35:00.678Z,69.32
2018-04-15T00:36:03.175Z,69.10
2018-04-15T00:37:05.661Z,71.97
2018-04-15T00:38:08.920Z,69.18
2018-04-15T00:39:11.396Z,67.22
2018-04-15T00:40:13.898Z,73.80
2018-04-15T00:41:17.207Z,70.47
2018-04-15T00:42:20.459Z,70.90
2018-04-15T00:43:22.936Z,73.47
2018-04-15T00:44:25.476Z,73.25
2018-04-15T00:45:28.021Z,76.28
2018-04-15T00:46:31.285Z,75.15
2018-04-15T00:47:33.821Z,75.70
2018-04-15T00:48:36.286Z,76.90
2018-04-15T00:49:38.853Z,75.40
2018-04-15T00:50:41.361Z,75.95
2018-04-15T00:51:44.609Z,75.22
2018-04-15T00:52:47.881Z,69.68
2018-04-15T00:54:02.105Z,75.85
2018-04-15T00:55:04.607Z,73.57
2018-04-15T00:56:07.100Z,76.55
2018-04-15T00:57:10.337Z,73.65
2018-04-15T00:58:13.576Z,75.60
2018-04-15T00:59:16.848Z,72.50
2018-04-15T01:00:19.362Z,70.32
2018-04-15T01:01:21.893Z,74.18
2018-04-15T01:02:24.376Z,70.75
2018-04-15T01:03:26.876Z,69.97
2018-04-15T01:04:29.334Z,72.87
2018-04-15T01:05:31.890Z,74.35
2018-04-15T01:06:34.365Z,71.82
2018-04-15T01:07:36.831Z,72.87
2018-04-15T01:08:40.093Z,71.90
2018-04-15T01:09:42.582Z,71.82
2018-04-15T01:10:45.873Z,75.53
2018-04-15T01:11:49.135Z,71.93
2018-04-15T01:12:51.575Z,70.28
2018-04-15T01:13:54.033Z,74.07
2018-04-15T01:14:56.541Z,66.30
2018-04-15T01:15:59.096Z,69.80
2018-04-15T01:17:01.622Z,69.37
2018-04-15T01:18:04.120Z,68.68
2018-04-15T01:19:07.358Z,67.50
2018-04-15T01:20:10.640Z,70.75
2018-04-15T01:21:13.129Z,68.60
2018-04-15T01:22:15.585Z,69.32
2018-04-15T01:23:18.084Z,69.15
2018-04-15T01:24:21.322Z,68.75
2018-04-15T01:25:24.576Z,70.30
2018-04-15T01:26:28.071Z,70.53
2018-04-15T01:27:30.569Z,66.50
2018-04-15T01:28:33.032Z,66.20
2018-04-15T01:29:35.550Z,65.72
2018-04-15T01:30:38.031Z,68.07
2018-04-15T01:31:40.595Z,65.57
2018-04-15T01:32:43.073Z,65.22
2018-04-15T01:33:46.349Z,67.72
2018-04-15T01:34:48.891Z,66.35
2018-04-15T01:35:51.365Z,67.03
2018-04-15T01:36:54.653Z,69.65
2018-04-15T01:37:57.131Z,66.45
2018-04-15T01:39:00.374Z,66.28
2018-04-15T01:40:03.607Z,65.28
2018-04-15T01:41:06.861Z,64.53
2018-04-15T01:42:10.962Z,67.20
2018-04-15T01:43:13.433Z,65.60
2018-04-15T01:44:15.958Z,63.05
2018-04-15T01:45:18.432Z,67.05
2018-04-15T01:46:20.937Z,62.83
2018-04-15T01:47:23.417Z,61.45
2018-04-15T01:48:25.907Z,63.17
2018-04-15T01:49:28.416Z,63.25
2018-04-15T01:50:30.880Z,62.42
2018-04-15T01:51:33.353Z,62.60
2018-04-15T01:52:36.601Z,65.75
2018-04-15T01:53:39.858Z,61.70
2018-04-15T01:54:42.375Z,62.03
2018-04-15T01:55:44.843Z,60.28
2018-04-15T01:56:47.320Z,59.67
2018-04-15T01:57:49.875Z,60.72
2018-04-15T01:58:52.378Z,60.72
2018-04-15T01:59:54.899Z,58.40
2018-04-15T02:00:57.374Z,61.08
2018-04-15T02:02:00.250Z,60.35
2018-04-15T02:03:03.502Z,59.80
2018-04-15T02:04:06.616Z,59.95
2018-04-15T02:05:09.123Z,63.92
2018-04-15T02:06:11.614Z,59.65
2018-04-15T02:07:14.086Z,61.03
2018-04-15T02:08:16.577Z,60.20
2018-04-15T02:09:19.053Z,56.92
2018-04-15T02:10:22.424Z,61.13
2018-04-15T02:11:24.912Z,57.55
2018-04-15T02:12:28.177Z,56.45
2018-04-15T02:13:30.639Z,57.15
2018-04-15T02:14:33.281Z,57.97
2018-04-15T02:15:35.809Z,56.28
2018-04-15T02:16:38.433Z,59.35
2018-04-15T02:17:40.910Z,60.92
2018-04-15T02:18:43.401Z,57.50
2018-04-15T02:19:45.860Z,58.25
2018-04-15T02:20:48.442Z,57.85
2018-04-15T02:21:50.936Z,55.97
2018-04-15T02:22:53.425Z,58.17
2018-04-15T02:23:56.746Z,59.75
2018-04-15T02:24:59.254Z,56.25
2018-04-15T02:26:01.833Z,61.40
2018-04-15T02:27:04.344Z,56.40
2018-04-15T02:28:06.821Z,57.80
2018-04-15T02:29:09.344Z,59.05
2018-04-15T02:30:11.816Z,58.40
2018-04-15T02:31:14.315Z,62.97
2018-04-15T02:32:16.806Z,59.33
2018-04-15T02:33:19.346Z,60.38
2018-04-15T02:34:21.843Z,64.45
2018-04-15T02:35:24.330Z,58.38
2018-04-15T02:36:26.920Z,61.05
2018-04-15T02:37:29.547Z,58.05
2018-04-15T02:38:32.029Z,59.55
2018-04-15T02:39:35.293Z,59.05
2018-04-15T02:40:37.792Z,60.55
2018-04-15T02:41:41.053Z,60.53
2018-04-15T02:42:44.312Z,59.92
2018-04-15T02:43:46.848Z,61.72
2018-04-15T02:44:49.365Z,59.05
2018-04-15T02:45:51.876Z,58.58
2018-04-15T02:46:55.124Z,57.15
2018-04-15T02:47:57.602Z,56.92
2018-04-15T02:49:00.097Z,56.00
2018-04-15T02:50:02.694Z,58.08
2018-04-15T02:51:05.178Z,58.35
2018-04-15T02:52:07.654Z,54.75
2018-04-15T02:53:10.174Z,55.65
2018-04-15T02:54:12.663Z,55.95
2018-04-15T02:56:24.094Z,55.17
2018-04-15T02:57:26.563Z,55.90
2018-04-15T02:58:29.033Z,54.83
2018-04-15T02:59:32.305Z,57.28
2018-04-15T03:00:34.775Z,56.53
2018-04-15T03:01:37.304Z,55.78
2018-04-15T03:02:39.897Z,57.17
2018-04-15T03:03:42.368Z,55.40
2018-04-15T03:04:45.629Z,55.45
2018-04-15T03:05:48.129Z,55.12
2018-04-15T03:06:50.622Z,55.20
2018-04-15T03:07:53.100Z,52.90
2018-04-15T03:08:56.325Z,56.40
2018-04-15T03:09:58.818Z,56.03
2018-04-15T03:11:01.345Z,55.33
2018-04-15T03:12:03.837Z,56.42
2018-04-15T03:13:06.349Z,57.15
2018-04-15T03:14:10.113Z,58.70
2018-04-15T03:15:12.638Z,57.25
2018-04-15T03:16:15.165Z,58.63
2018-04-15T03:17:17.695Z,55.15
2018-04-15T03:18:20.173Z,57.95
2018-04-15T03:19:22.733Z,57.00
2018-04-15T03:20:25.257Z,57.58
2018-04-15T03:21:28.500Z,56.20
2018-04-15T03:22:31.027Z,56.20
2018-04-15T03:23:33.491Z,56.45
2018-04-15T03:24:35.980Z,53.87
2018-04-15T03:25:38.493Z,56.35
2018-04-15T03:26:41.735Z,57.20
2018-04-15T03:27:45.106Z,54.50
2018-04-15T03:28:47.576Z,56.37
2018-04-15T03:29:50.055Z,54.75
2018-04-15T03:30:52.525Z,56.17
2018-04-15T03:31:55.135Z,54.20
2018-04-15T03:32:57.713Z,54.28
2018-04-15T03:34:00.208Z,54.05
2018-04-15T03:35:02.690Z,53.13
2018-04-15T03:36:05.164Z,52.65
2018-04-15T03:37:07.652Z,54.55
2018-04-15T03:38:10.164Z,54.10
2018-04-15T03:39:12.646Z,53.65
2018-04-15T03:40:15.914Z,54.50
2018-04-15T03:41:19.141Z,53.10
2018-04-15T03:42:22.404Z,54.08
2018-04-15T03:43:25.165Z,54.17
2018-04-15T03:44:27.646Z,53.70
2018-04-15T03:45:30.913Z,53.53
2018-04-15T03:46:33.387Z,53.75
2018-04-15T03:47:35.854Z,53.85
2018-04-15T03:48:38.391Z,52.90
2018-04-15T03:49:40.878Z,53.05
2018-04-15T03:50:44.141Z,54.38
2018-04-15T03:51:46.626Z,52.30
2018-04-15T03:52:49.090Z,51.85
2018-04-15T03:53:51.595Z,53.13
2018-04-15T03:54:54.847Z,54.20
2018-04-15T03:55:58.105Z,54.35
2018-04-15T03:57:00.619Z,54.45
2018-04-15T03:58:03.930Z,53.85
2018-04-15T03:59:06.405Z,53.90
2018-04-15T04:00:08.883Z,54.22
2018-04-15T04:01:11.811Z,54.25
2018-04-15T04:02:14.293Z,53.47
2018-04-15T04:03:16.785Z,53.70
2018-04-15T04:04:20.034Z,54.15
2018-04-15T04:05:23.270Z,55.12
2018-04-15T04:06:26.525Z,51.28
2018-04-15T04:07:29.782Z,53.78
2018-04-15T04:08:32.258Z,53.53
2018-04-15T04:09:34.735Z,56.25
2018-04-15T04:10:37.960Z,54.08
2018-04-15T04:11:41.331Z,55.25
2018-04-15T04:12:43.801Z,53.60
2018-04-15T04:13:46.311Z,55.72
2018-04-15T04:14:49.594Z,53.45
2018-04-15T04:15:52.859Z,53.40
2018-04-15T04:16:55.336Z,52.60
2018-04-15T04:18:09.674Z,52.03
2018-04-15T04:19:24.155Z,53.67
2018-04-15T04:20:39.359Z,53.35
2018-04-15T04:21:54.411Z,55.30
2018-04-15T04:23:08.763Z,52.97
2018-04-15T04:24:23.209Z,53.35
2018-04-15T04:25:37.744Z,55.85
2018-04-15T04:26:40.337Z,53.28
2018-04-15T04:27:42.823Z,55.17
2018-04-15T04:28:46.523Z,54.58
2018-04-15T04:29:48.988Z,55.17
2018-04-15T04:30:52.273Z,52.42
2018-04-15T04:31:55.500Z,53.00
2018-04-15T04:32:58.033Z,56.75
2018-04-15T04:34:00.532Z,53.25
2018-04-15T04:35:03.768Z,52.45
2018-04-15T04:36:07.889Z,54.28
2018-04-15T04:37:10.385Z,53.05
2018-04-15T04:38:12.935Z,52.65
2018-04-15T04:39:15.409Z,51.63
2018-04-15T04:40:18.642Z,51.25
2018-04-15T04:41:21.114Z,53.78
2018-04-15T04:42:23.666Z,52.28
2018-04-15T04:43:26.147Z,52.83
2018-04-15T04:44:28.653Z,51.05
2018-04-15T04:45:31.905Z,50.58
2018-04-15T04:46:35.123Z,51.35
2018-04-15T04:47:37.640Z,51.42
2018-04-15T04:48:40.133Z,49.92
2018-04-15T04:49:42.624Z,51.35
2018-04-15T04:50:46.016Z,51.37
2018-04-15T04:51:48.486Z,49.63
2018-04-15T04:52:51.757Z,49.90
2018-04-15T04:53:54.285Z,49.42
2018-04-15T04:54:56.760Z,47.85
2018-04-15T04:55:59.245Z,49.70
2018-04-15T04:57:01.704Z,50.38
2018-04-15T04:58:04.288Z,49.65
2018-04-15T04:59:06.812Z,47.90
2018-04-15T05:00:09.304Z,48.53
2018-04-15T05:01:12.606Z,48.90
2018-04-15T05:02:15.073Z,47.17
2018-04-15T05:03:18.308Z,48.38
2018-04-15T05:04:21.561Z,48.90
2018-04-15T05:05:24.802Z,47.60
2018-04-15T05:06:28.096Z,46.65
2018-04-15T05:07:30.602Z,47.50
2018-04-15T05:08:33.126Z,46.85
2018-04-15T05:09:35.633Z,46.63
2018-04-15T05:10:38.096Z,48.85
2018-04-15T05:11:40.569Z,47.45
2018-04-15T05:12:43.810Z,47.53
2018-04-15T05:13:46.381Z,47.60
2018-04-15T05:14:48.873Z,48.10
2018-04-15T05:15:52.125Z,46.37
2018-04-15T05:16:55.379Z,45.28
2018-04-15T05:17:57.865Z,47.40
2018-04-15T05:19:01.146Z,47.05
2018-04-15T05:20:03.679Z,45.45
2018-04-15T05:21:06.180Z,46.30
2018-04-15T05:22:09.460Z,45.78
2018-04-15T05:23:11.915Z,46.65
2018-04-15T05:24:14.407Z,44.78
2018-04-15T05:25:16.881Z,44.95
2018-04-15T05:26:19.383Z,44.80
2018-04-15T05:27:21.848Z,44.25
2018-04-15T05:28:25.105Z,43.35
2018-04-15T05:29:27.576Z,46.40
2018-04-15T05:30:30.855Z,43.30
2018-04-15T05:31:34.102Z,44.03
2018-04-15T05:32:37.343Z,43.75
2018-04-15T05:33:40.577Z,43.33
2018-04-15T05:34:43.810Z,42.78
2018-04-15T05:35:46.317Z,42.40
2018-04-15T05:36:48.786Z,42.22
2018-04-15T05:37:51.293Z,41.30
2018-04-15T05:38:53.766Z,41.35
2018-04-15T05:39:56.238Z,42.40
2018-04-15T05:40:59.536Z,43.15
2018-04-15T05:42:01.993Z,40.42
2018-04-15T05:43:04.457Z,41.42
2018-04-15T05:44:07.001Z,40.80
2018-04-15T05:45:09.473Z,41.25
2018-04-15T05:46:11.985Z,41.55
2018-04-15T05:47:14.474Z,41.58
2018-04-15T05:48:16.950Z,40.45
2018-04-15T05:49:20.993Z,40.80
2018-04-15T05:50:23.472Z,39.33
2018-04-15T05:51:25.982Z,40.85
2018-04-15T05:52:29.365Z,39.50
2018-04-15T05:53:31.895Z,38.22
2018-04-15T05:54:34.376Z,39.13
2018-04-15T05:55:37.611Z,39.97
2018-04-15T05:56:40.836Z,36.45
2018-04-15T05:57:43.332Z,38.70
2018-04-15T05:58:45.956Z,37.83
2018-04-15T05:59:48.411Z,36.80
2018-04-15T06:00:50.882Z,38.35
2018-04-15T06:01:53.381Z,37.05
2018-04-15T06:02:56.633Z,38.30
2018-04-15T06:03:59.892Z,39.15
2018-04-15T06:05:02.368Z,39.10
2018-04-15T06:06:04.848Z,37.38
2018-04-15T06:07:07.360Z,37.40
2018-04-15T06:08:09.838Z,38.33
2018-04-15T06:09:12.346Z,36.72
2018-04-15T06:10:14.808Z,37.05
2018-04-15T06:11:17.342Z,37.40
2018-04-15T06:12:20.608Z,35.85
2018-04-15T06:13:23.080Z,37.30
2018-04-15T06:14:25.575Z,36.63
2018-04-15T06:15:28.070Z,34.92
2018-04-15T06:16:31.309Z,36.45
2018-04-15T06:17:34.548Z,37.20
2018-04-15T06:18:37.824Z,35.05
2018-04-15T06:19:40.299Z,35.88
2018-04-15T06:20:42.776Z,35.72
2018-04-15T06:21:45.239Z,35.50
2018-04-15T06:22:47.829Z,34.35
2018-04-15T06:23:50.342Z,33.72
2018-04-15T06:24:52.868Z,34.85
2018-04-15T06:25:55.379Z,33.38
2018-04-15T06:26:58.637Z,32.80
2018-04-15T06:28:01.125Z,34.30
2018-04-15T06:29:03.589Z,34.42
2018-04-15T06:30:06.083Z,33.53
2018-04-15T06:31:09.338Z,31.87
2018-04-15T06:32:12.591Z,33.17
2018-04-15T06:33:15.075Z,31.58
2018-04-15T06:34:17.651Z,33.63
2018-04-15T06:35:20.128Z,30.02
2018-04-15T06:36:22.644Z,30.48
2018-04-15T06:37:25.135Z,31.05
2018-04-15T06:38:27.603Z,33.17
2018-04-15T06:39:30.106Z,30.30
2018-04-15T06:40:32.589Z,30.20
2018-04-15T06:41:35.082Z,30.15
2018-04-15T06:42:37.555Z,30.37
2018-04-15T06:43:40.038Z,28.50
2018-04-15T06:44:42.540Z,28.20
2018-04-15T06:45:45.127Z,26.90
2018-04-15T06:46:47.649Z,27.80
2018-04-15T06:47:50.147Z,25.50
2018-04-15T06:48:52.645Z,26.25
2018-04-15T06:49:55.116Z,27.50
2018-04-15T06:50:58.382Z,25.70
2018-04-15T06:52:00.896Z,27.08
2018-04-15T06:53:03.378Z,31.05
2018-04-15T06:54:05.861Z,24.20
2018-04-15T06:55:08.328Z,47.33
2018-04-15T06:56:10.809Z,24.15
2018-04-15T06:57:13.458Z,25.65
2018-04-15T06:58:15.950Z,24.87
2018-04-15T06:59:18.477Z,25.12
2018-04-15T07:00:20.968Z,25.05
2018-04-15T07:01:24.290Z,24.67
2018-04-15T07:02:26.814Z,25.67
2018-04-15T07:03:29.290Z,24.05
2018-04-15T07:04:31.785Z,23.95
2018-04-15T07:05:34.252Z,23.55
2018-04-15T07:06:36.712Z,23.40
2018-04-15T07:07:39.287Z,21.27
2018-04-15T07:08:41.760Z,21.30
2018-04-15T07:09:44.271Z,24.98
2018-04-15T07:10:46.774Z,21.20
2018-04-15T07:11:50.257Z,21.55
2018-04-15T07:12:52.954Z,22.02
2018-04-15T07:13:55.453Z,22.45
2018-04-15T07:14:58.688Z,20.77
2018-04-15T07:16:01.989Z,19.70
2018-04-15T07:17:04.480Z,19.83
2018-04-15T07:18:06.985Z,19.85
2018-04-15T07:19:10.251Z,18.70
2018-04-15T07:20:12.743Z,18.70
2018-04-15T07:21:15.220Z,18.45
2018-04-15T07:22:17.745Z,18.80
2018-04-15T07:23:20.226Z,17.77
2018-04-15T07:24:23.641Z,19.42
2018-04-15T07:25:26.130Z,18.10
2018-04-15T07:26:28.610Z,19.50
2018-04-15T07:27:31.113Z,17.58
2018-04-15T07:28:33.587Z,17.70
2018-04-15T07:29:36.140Z,18.00
2018-04-15T07:30:38.673Z,15.27
2018-04-15T07:31:41.170Z,17.05
2018-04-15T07:32:43.646Z,16.65
2018-04-15T07:33:46.122Z,17.23
2018-04-15T07:34:48.641Z,17.35
2018-04-15T07:35:51.138Z,16.37
2018-04-15T07:36:54.430Z,16.02
2018-04-15T07:37:56.907Z,16.60
2018-04-15T07:38:59.567Z,15.90
2018-04-15T07:40:02.081Z,16.37
2018-04-15T07:41:05.324Z,15.40
2018-04-15T07:42:08.586Z,16.08
2018-04-15T07:43:11.095Z,15.55
2018-04-15T07:44:13.577Z,15.13
2018-04-15T07:45:16.075Z,16.70
2018-04-15T07:46:18.563Z,24.55
2018-04-15T07:47:21.826Z,15.88
2018-04-15T07:48:24.292Z,18.25
2018-04-15T07:49:26.756Z,12.95
2018-04-15T07:50:30.091Z,16.55
2018-04-15T07:51:32.550Z,14.50
2018-04-15T07:52:35.121Z,21.20
2018-04-15T07:53:37.697Z,14.10
2018-04-15T07:54:40.175Z,15.20
2018-04-15T07:55:42.728Z,14.00
2018-04-15T07:56:45.178Z,13.30
2018-04-15T07:57:47.697Z,20.12
2018-04-15T07:58:50.172Z,14.57
2018-04-15T07:59:52.663Z,12.95
2018-04-15T08:00:55.205Z,11.40
2018-04-15T08:01:57.689Z,11.52
2018-04-15T08:03:00.949Z,12.88
2018-04-15T08:04:03.481Z,11.40
2018-04-15T08:05:06.035Z,11.63
2018-04-15T08:06:08.649Z,12.02
2018-04-15T08:07:11.161Z,11.43
2018-04-15T08:08:13.681Z,10.70
2018-04-15T08:09:16.217Z,11.10
2018-04-15T08:10:19.162Z,12.32
2018-04-15T08:11:21.641Z,10.35
2018-04-15T08:12:24.913Z,10.77
2018-04-15T08:13:27.433Z,10.88
2018-04-15T08:14:29.961Z,11.00
2018-04-15T08:15:32.453Z,11.20
2018-04-15T08:16:35.711Z,10.40
2018-04-15T08:17:38.940Z,10.73
2018-04-15T08:18:42.242Z,10.48
2018-04-15T08:19:44.855Z,10.80
2018-04-15T08:20:47.361Z,10.48
2018-04-15T08:21:49.835Z,10.07
2018-04-15T08:22:52.312Z,10.40
2018-04-15T08:23:54.865Z,10.20
2018-04-15T08:24:57.381Z,9.55
2018-04-15T08:25:59.860Z,9.55
2018-04-15T08:27:02.389Z,10.18
2018-04-15T08:28:05.658Z,9.50
2018-04-15T08:29:08.126Z,9.73
2018-04-15T08:30:10.721Z,9.70
2018-04-15T08:31:13.230Z,9.60
2018-04-15T08:32:16.465Z,10.00
2018-04-15T08:33:19.707Z,9.68
2018-04-15T08:34:22.941Z,9.90
2018-04-15T08:35:26.228Z,9.20
2018-04-15T08:36:28.713Z,9.65
2018-04-15T08:37:31.192Z,8.85
2018-04-15T08:38:33.727Z,9.80
2018-04-15T08:39:36.185Z,9.07
2018-04-15T08:40:39.485Z,9.48
2018-04-15T08:41:42.000Z,8.93
2018-04-15T08:42:44.498Z,8.43
2018-04-15T08:43:46.991Z,8.70
2018-04-15T08:44:49.496Z,8.18
2018-04-15T08:45:52.017Z,9.15
2018-04-15T08:46:54.514Z,7.80
2018-04-15T08:47:57.044Z,9.25
2018-04-15T08:48:59.556Z,8.55
2018-04-15T08:50:02.073Z,8.43
2018-04-15T08:51:05.356Z,9.20
2018-04-15T08:52:07.849Z,8.52
2018-04-15T08:53:10.381Z,8.93
2018-04-15T08:54:12.922Z,8.35
2018-04-15T08:55:15.476Z,9.15
2018-04-15T08:56:18.049Z,8.10
2018-04-15T08:57:20.532Z,8.90
2018-04-15T08:58:23.064Z,8.05
2018-04-15T08:59:25.579Z,8.65
2018-04-15T09:00:28.053Z,7.60
2018-04-15T09:01:31.278Z,8.52
2018-04-15T09:02:34.528Z,8.40
2018-04-15T09:03:37.781Z,8.38
2018-04-15T09:04:40.289Z,8.80
2018-04-15T09:05:43.530Z,8.18
2018-04-15T09:06:46.776Z,8.73
2018-04-15T09:07:50.140Z,8.20
2018-04-15T09:08:52.636Z,7.90
2018-04-15T09:09:55.145Z,8.10
2018-04-15T09:10:57.656Z,8.35
2018-04-15T09:12:00.137Z,7.70
2018-04-15T09:13:02.617Z,8.00
2018-04-15T09:14:05.395Z,9.27
2018-04-15T09:15:07.947Z,8.68
2018-04-15T09:16:10.470Z,8.05
2018-04-15T09:17:13.027Z,8.45
2018-04-15T09:18:15.486Z,9.63
2018-04-15T09:19:17.971Z,7.55
2018-04-15T09:20:20.577Z,7.55
2018-04-15T09:21:23.066Z,8.27
2018-04-15T09:22:26.313Z,7.35
2018-04-15T09:23:28.846Z,9.70
2018-04-15T09:24:31.321Z,7.57
2018-04-15T09:25:33.865Z,7.93
2018-04-15T09:26:37.113Z,7.50
2018-04-15T09:27:40.514Z,7.07
2018-04-15T09:28:43.135Z,7.40
2018-04-15T09:29:45.633Z,8.75
2018-04-15T09:30:53.704Z,6.78
2018-04-15T09:31:56.224Z,6.80
2018-04-15T09:32:58.747Z,7.07
2018-04-15T09:34:01.305Z,11.40
2018-04-15T09:35:03.828Z,11.27
2018-04-15T09:36:06.305Z,6.28
2018-04-15T09:37:09.561Z,6.07
2018-04-15T09:38:12.105Z,7.32
2018-04-15T09:39:14.590Z,10.50
2018-04-15T09:40:17.866Z,6.15
2018-04-15T09:41:20.337Z,6.90
2018-04-15T09:42:22.808Z,25.48
2018-04-15T09:43:26.093Z,6.65
2018-04-15T09:44:28.599Z,6.00
2018-04-15T09:45:31.100Z,6.53
2018-04-15T09:46:33.580Z,6.30
2018-04-15T09:47:37.578Z,7.68
2018-04-15T09:48:40.063Z,7.90
2018-04-15T09:49:44.059Z,10.43
2018-04-15T09:50:47.328Z,8.50
2018-04-15T09:51:49.821Z,6.47
2018-04-15T09:52:53.085Z,6.70
2018-04-15T09:53:55.549Z,6.12
2018-04-15T09:54:58.046Z,7.60
2018-04-15T09:56:00.580Z,6.55
2018-04-15T09:57:03.509Z,6.53
2018-04-15T09:58:05.996Z,6.82
2018-04-15T09:59:09.242Z,6.60
2018-04-15T10:00:12.470Z,7.28
2018-04-15T10:01:16.505Z,6.78
2018-04-15T10:02:19.010Z,5.57
2018-04-15T10:03:21.465Z,5.87
2018-04-15T10:04:23.990Z,6.10
2018-04-15T10:05:26.700Z,6.32
2018-04-15T10:06:29.195Z,5.55
2018-04-15T10:07:31.678Z,6.10
2018-04-15T10:08:34.182Z,5.53
2018-04-15T10:09:36.668Z,5.15
2018-04-15T10:10:39.158Z,5.57
2018-04-15T10:11:41.695Z,5.70
2018-04-15T10:12:44.932Z,5.50
2018-04-15T10:13:48.155Z,5.50
2018-04-15T10:14:50.627Z,5.43
2018-04-15T10:15:53.170Z,5.55
2018-04-15T10:16:55.731Z,6.10
2018-04-15T10:17:58.198Z,5.97
2018-04-15T10:19:00.647Z,5.65
2018-04-15T10:20:03.149Z,11.50
2018-04-15T10:21:05.659Z,5.22
2018-04-15T10:22:09.042Z,4.85
2018-04-15T10:23:11.547Z,6.20
2018-04-15T10:24:14.040Z,4.62
2018-04-15T10:25:16.493Z,4.70
2018-04-15T10:26:19.045Z,5.50
2018-04-15T10:27:21.546Z,8.15
2018-04-15T10:28:24.774Z,5.20
2018-04-15T10:29:28.014Z,4.87
2018-04-15T10:30:31.260Z,4.90
2018-04-15T10:31:34.521Z,5.12
2018-04-15T10:32:37.037Z,4.70
2018-04-15T10:33:39.512Z,4.37
2018-04-15T10:34:42.058Z,4.80
2018-04-15T10:35:45.348Z,4.20
2018-04-15T10:36:47.861Z,5.30
2018-04-15T10:37:50.435Z,4.30
2018-04-15T10:38:53.477Z,4.57
2018-04-15T10:39:56.057Z,4.55
2018-04-15T10:40:58.527Z,5.22
2018-04-15T10:42:01.803Z,4.50
2018-04-15T10:43:05.178Z,4.40
2018-04-15T10:44:07.690Z,4.20
2018-04-15T10:45:10.167Z,3.95
2018-04-15T10:46:12.623Z,4.35
2018-04-15T10:47:16.006Z,4.10
2018-04-15T10:48:18.523Z,5.53
2018-04-15T10:49:20.997Z,3.95
2018-04-15T10:50:23.490Z,4.22
2018-04-15T10:51:25.978Z,4.20
2018-04-15T10:52:29.236Z,4.95
2018-04-15T10:53:31.808Z,5.53
2018-04-15T10:54:34.397Z,4.47
2018-04-15T10:55:36.906Z,4.15
2018-04-15T10:56:40.169Z,4.40
2018-04-15T10:57:42.651Z,4.00
2018-04-15T10:58:45.156Z,5.50
2018-04-15T10:59:47.680Z,4.40
2018-04-15T11:00:50.188Z,4.25
2018-04-15T11:01:52.703Z,4.50
2018-04-15T11:02:55.165Z,3.62
2018-04-15T11:03:57.654Z,4.35
2018-04-15T11:05:00.144Z,4.20
2018-04-15T11:06:04.159Z,3.83
2018-04-15T11:07:06.620Z,3.70
2018-04-15T11:08:09.864Z,3.95
2018-04-15T11:09:13.122Z,4.37
2018-04-15T11:10:16.409Z,4.00
2018-04-15T11:11:18.910Z,4.80
2018-04-15T11:12:21.397Z,4.57
2018-04-15T11:13:24.634Z,4.62
2018-04-15T11:14:27.189Z,4.25
2018-04-15T11:15:29.652Z,4.60
2018-04-15T11:16:32.164Z,4.32
2018-04-15T11:17:34.692Z,4.20
2018-04-15T11:18:37.193Z,4.28
2018-04-15T11:19:39.707Z,4.25
2018-04-15T11:20:42.936Z,3.70
2018-04-15T11:21:46.200Z,4.10
2018-04-15T11:22:48.670Z,3.95
2018-04-15T11:23:51.309Z,4.50
2018-04-15T11:24:54.569Z,3.17
2018-04-15T11:25:57.039Z,3.50
2018-04-15T11:26:59.531Z,3.65
2018-04-15T11:28:02.809Z,3.55
2018-04-15T11:29:05.298Z,4.93
2018-04-15T11:30:08.533Z,3.40
2018-04-15T11:31:11.038Z,2.95
2018-04-15T11:32:13.509Z,3.42
2018-04-15T11:33:15.993Z,3.42
2018-04-15T11:34:18.615Z,3.80
2018-04-15T11:35:21.081Z,3.40
2018-04-15T11:36:23.631Z,3.25
2018-04-15T11:37:26.109Z,3.03
2018-04-15T11:38:28.692Z,2.70
2018-04-15T11:39:31.191Z,2.80
2018-04-15T11:40:33.684Z,2.60
2018-04-15T11:41:36.925Z,2.80
2018-04-15T11:42:40.256Z,2.28
2018-04-15T11:43:42.716Z,2.60
2018-04-15T11:44:45.983Z,2.47
2018-04-15T11:45:48.513Z,2.47
2018-04-15T11:46:51.540Z,3.20
2018-04-15T11:47:54.104Z,2.58
2018-04-15T11:48:56.630Z,2.50
2018-04-15T11:49:59.182Z,2.60
2018-04-15T11:51:02.987Z,2.37
2018-04-15T11:52:05.518Z,2.30
2018-04-15T11:53:07.993Z,2.00
2018-04-15T11:54:11.260Z,4.53
2018-04-15T11:55:13.754Z,1.98
2018-04-15T11:56:16.241Z,2.40
2018-04-15T11:57:18.708Z,1.90
2018-04-15T11:58:21.978Z,4.03
2018-04-15T11:59:24.434Z,2.97
2018-04-15T12:00:27.006Z,2.10
2018-04-15T12:01:30.236Z,1.90
2018-04-15T12:02:32.802Z,2.28
2018-04-15T12:03:35.267Z,2.40
2018-04-15T12:04:37.863Z,2.10
2018-04-15T12:05:40.346Z,2.10
2018-04-15T12:06:43.665Z,2.05
2018-04-15T12:07:46.147Z,2.33
2018-04-15T12:08:49.093Z,5.65
2018-04-15T12:09:51.571Z,4.05
2018-04-15T12:10:54.073Z,2.15
2018-04-15T12:11:56.536Z,2.10
2018-04-15T12:12:59.769Z,2.30
2018-04-15T12:14:02.998Z,2.17
2018-04-15T12:15:05.469Z,1.95
2018-04-15T12:16:07.949Z,2.17
2018-04-15T12:17:10.410Z,2.80
2018-04-15T12:18:12.893Z,3.85
2018-04-15T12:19:15.457Z,5.78
2018-04-15T12:20:17.958Z,8.20
2018-04-15T12:21:20.425Z,2.65
2018-04-15T12:22:22.933Z,2.97
2018-04-15T12:23:26.191Z,2.05
2018-04-15T12:24:28.667Z,2.00
2018-04-15T12:25:31.136Z,2.28
2018-04-15T12:26:33.623Z,9.50
2018-04-15T12:27:36.743Z,2.53
2018-04-15T12:28:39.229Z,2.20
2018-04-15T12:29:41.715Z,3.25
2018-04-15T12:30:45.001Z,2.47
2018-04-15T12:31:47.524Z,7.85
2018-04-15T12:32:50.078Z,14.30
2018-04-15T12:33:52.747Z,3.35
2018-04-15T12:34:55.210Z,1.85
2018-04-15T12:35:57.696Z,2.60
2018-04-15T12:37:01.426Z,7.12
2018-04-15T12:38:05.424Z,3.95
2018-04-15T12:39:08.752Z,4.30
2018-04-15T12:40:12.065Z,2.65
2018-04-15T12:41:14.606Z,3.10
2018-04-15T12:42:18.457Z,4.87
2018-04-15T12:43:20.941Z,2.90
2018-04-15T12:44:24.270Z,2.90
2018-04-15T12:45:26.793Z,2.92
2018-04-15T12:46:29.331Z,3.10
2018-04-15T12:47:31.898Z,2.50
2018-04-15T12:48:34.385Z,10.45
2018-04-15T12:49:36.873Z,6.93
2018-04-15T12:50:39.411Z,5.25
2018-04-15T12:51:42.647Z,4.00
2018-04-15T12:52:45.880Z,3.03
2018-04-15T12:53:49.168Z,15.10
2018-04-15T12:54:51.766Z,3.83
2018-04-15T12:55:55.252Z,4.25
2018-04-15T12:56:57.732Z,2.20
2018-04-15T12:58:00.214Z,3.60
2018-04-15T12:59:03.550Z,5.85
2018-04-15T13:00:06.087Z,3.03
2018-04-15T13:01:08.581Z,2.72
2018-04-15T13:02:11.869Z,3.95
2018-04-15T13:03:14.338Z,2.25
2018-04-15T13:04:16.876Z,2.90
2018-04-15T13:05:19.444Z,3.00
2018-04-15T13:06:21.914Z,2.37
2018-04-15T13:07:25.157Z,2.35
2018-04-15T13:08:27.668Z,2.03
2018-04-15T13:09:30.893Z,2.55
2018-04-15T13:10:33.382Z,3.40
2018-04-15T13:11:35.838Z,2.80
2018-04-15T13:12:38.303Z,6.60
2018-04-15T13:13:40.755Z,2.50
2018-04-15T13:14:43.228Z,3.85
2018-04-15T13:15:46.496Z,2.67
2018-04-15T13:16:48.969Z,2.95
2018-04-15T13:17:52.209Z,3.92
2018-04-15T13:18:54.718Z,2.50
2018-04-15T13:19:57.227Z,2.50
2018-04-15T13:20:59.754Z,3.60
2018-04-15T13:22:02.228Z,2.50
2018-04-15T13:23:05.479Z,2.50
2018-04-15T13:24:07.941Z,2.50
2018-04-15T13:25:10.434Z,3.35
2018-04-15T13:26:13.810Z,2.90
2018-04-15T13:27:16.280Z,2.55
2018-04-15T13:28:18.771Z,5.20
2018-04-15T13:29:21.267Z,6.53
2018-04-15T13:30:23.781Z,2.70
2018-04-15T13:31:27.060Z,3.15
2018-04-15T13:32:29.543Z,5.80
2018-04-15T13:33:32.807Z,2.55
2018-04-15T13:34:36.085Z,2.10
2018-04-15T13:35:38.567Z,2.55
2018-04-15T13:36:42.121Z,3.10
2018-04-15T13:37:45.422Z,11.55
2018-04-15T13:38:47.894Z,3.22
2018-04-15T13:39:50.359Z,2.47
2018-04-15T13:40:52.953Z,2.58